Thermal, CA

5:28 PM PDT on August 28, 2016 (GMT -0700)
Desert Resorts Regional | | Change Station

Elev -115 ft 33.63 °N, 116.16 °W | Updated 36 minutes ago

Clear
Clear
104 °F
Feels Like 104 °F
N
12
Wind Variable Wind from ESE

Today
High -- | Low -- °F
--% Chance of Precip.
Yesterday
High -- | Low -- °F
Precip. -- in
Pressure 29.78 in
Visibility 10.0 miles
Clouds Clear
Dew Point 47 °F
Humidity 15%
Rainfall 0.00 in
Snow Depth Not available.
6:16 AM 7:14 PM
Waning Crescent, 12% visible
METAR KTRM 282352Z AUTO 12010KT 10SM CLR 40/08 A2977 RMK AO2 SLP084 T04000083 10406 20356 56025 TSNO
Pressure 29.78 in
Visibility 10.0 miles
Clouds Clear
Dew Point 47 °F
Humidity 15%
Rainfall 0.00 in
Snow Depth Not available.
6:16 AM 7:14 PM
Waning Crescent, 12% visible
METAR KTRM 282352Z AUTO 12010KT 10SM CLR 40/08 A2977 RMK AO2 SLP084 T04000083 10406 20356 56025 TSNO

10-Day Weather Forecast

Almanac

Astronomy

Aug. 28, 2016 Rise Set
Actual Time
Civil Twilight
Nautical Twilight
Astronomical Twilight
Moon
Length of Visible Light
Length of Day
Tomorrow will be .
, % of the Moon is Illuminated

Today's Extremes

State Highs State Lows

Community

WunderPhotos

Upload Photos

1,935,730 photos uploaded!

WunderBlog® & News

Nearby

Air Quality

  Air Quality AQ Index Pollutant
Not available.

Snow Depth

Station Depth Elevation

Earthquake Activity

City Distance Mag. Time & Date
Minimum magnitude displayed is 2.5.

Coastal Water Temperatures

Place Temperature

Stations

Nearby Weather Stations

Station Location Temp. Windchill Dew Point Humidity Wind Precip. Elev Updated Type
                   

Watches & Warnings

There are currently no watches in effect.